Página principal
METAR-TAF:

METAR-TAF

Aeroportos :

Palacios Municipal Airport

Palacios, Texas, Estados Unidos

latitude: 28-43-39N, longitude: 096-15-03W, altura: 5 m

Observação actual do tempo

O boletim foi feito há 13 minutos, às 15:41 UTC
Vento 10 kt de norte
Temperatura 17°C
Humidade 100%
Pressão 1009 hPa
Visibilidade: 2.8 km
Poucas nuvensa uma altura de 500 ft
Nuvens fragmentadasa uma altura de 2600 ft
Encobertoa uma altura de 3100 ft
chuva fraca, neblina

METAR: KPSX 171541Z AUTO 36010KT 1 3/4SM -RA BR FEW005 BKN026 OVC031 17/17 A2979 RMK AO2 RAE05B20 P0001 T01720172

Hora: 09:54 (15:54 UTC)


TAF: em falta

Observações e previsões do tempo de mais de 4000 aeroportos (mensagens METAR e TAF).

As estações disponíveis são os pontos amarelos e vermelhos sobre o mapa.

Mova o rato sobre o mapa para ver o nome da estação.

Depois clique no ponto para visualizar as observações e previsões meteorológicas.

Para alterar o mapa : clique nos botões verdes com uma cruz preta para aumentar o zoom; no botão verde com uma pitada de zoom; ou nas setas verdes para mapas adjacentes.


METAR-TAF: